Time;durP1;ratioP1;P1;durP2;ratioP2;P2;SDS_P1;SDS_P2;PMS_P1;PMS_P2;Temp;Humidity;BMP_temperature;BMP_pressure;BME280_temperature;BME280_humidity;BME280_pressure;Samples;Min_cycle;Max_cycle;Signal;HPM_P1;HPM_P2
2022/04/25 00:01:30;;;;;;;8.35;3.20;;;;;;;;;;5019414;28;20049;-68
2022/04/25 00:03:56;;;;;;;8.30;2.38;;;;;;;;;;5015580;28;20038;-68
2022/04/25 00:06:22;;;;;;;8.57;3.30;;;;;;;;;;5013909;28;20033;-68
2022/04/25 00:08:47;;;;;;;10.20;3.33;;;;;;;;;;5013625;28;20046;-67
2022/04/25 00:11:12;;;;;;;9.68;3.20;;;;;;;;;;5013751;28;20037;-68
2022/04/25 00:13:38;;;;;;;7.15;3.47;;;;;;;;;;5013749;28;20041;-68
2022/04/25 00:16:04;;;;;;;6.88;2.80;;;;;;;;;;5015079;28;20127;-67
2022/04/25 00:18:29;;;;;;;8.00;2.97;;;;;;;;;;5012466;28;20034;-68
2022/04/25 00:20:55;;;;;;;10.50;4.03;;;;;;;;;;5022182;28;20038;-68
2022/04/25 00:23:22;;;;;;;5.03;2.50;;;;;;;;;;5013743;28;20037;-68
2022/04/25 00:25:47;;;;;;;9.90;4.00;;;;;;;;;;5019021;28;20390;-67
2022/04/25 00:28:13;;;;;;;13.10;3.63;;;;;;;;;;5013171;28;20087;-68
2022/04/25 00:30:38;;;;;;;14.38;4.13;;;;;;;;;;5013603;28;20441;-67
2022/04/25 00:33:04;;;;;;;21.15;5.00;;;;;;;;;;5014705;28;20384;-67
2022/04/25 00:35:29;;;;;;;14.18;4.30;;;;;;;;;;5012727;28;20116;-68
2022/04/25 00:37:55;;;;;;;11.15;3.90;;;;;;;;;;5014603;28;20042;-67
2022/04/25 00:40:22;;;;;;;15.32;4.63;;;;;;;;;;5014964;28;20041;-68
2022/04/25 00:42:48;;;;;;;15.30;4.68;;;;;;;;;;5010728;28;20467;-68
2022/04/25 00:45:14;;;;;;;13.80;5.60;;;;;;;;;;5013481;28;20087;-67
2022/04/25 00:47:41;;;;;;;12.88;5.20;;;;;;;;;;5013352;28;20156;-68
2022/04/25 00:50:08;;;;;;;17.73;5.22;;;;;;;;;;5022341;28;20026;-68
2022/04/25 00:52:33;;;;;;;16.63;5.57;;;;;;;;;;5013195;28;20054;-67
2022/04/25 00:55:01;;;;;;;15.23;5.63;;;;;;;;;;5014383;28;20037;-68
2022/04/25 00:57:27;;;;;;;14.75;6.03;;;;;;;;;;5013398;28;20037;-67
2022/04/25 00:59:52;;;;;;;14.82;5.13;;;;;;;;;;5013080;28;20065;-68
2022/04/25 01:02:18;;;;;;;17.42;6.60;;;;;;;;;;5028306;28;20026;-68
2022/04/25 01:04:43;;;;;;;19.60;6.43;;;;;;;;;;5008869;28;20477;-68
2022/04/25 01:07:09;;;;;;;14.20;5.50;;;;;;;;;;5013077;28;20037;-68
2022/04/25 01:09:35;;;;;;;13.70;6.63;;;;;;;;;;5013457;28;20034;-68
2022/04/25 01:12:00;;;;;;;15.60;6.57;;;;;;;;;;5012834;28;20034;-68
2022/04/25 01:14:26;;;;;;;16.45;6.85;;;;;;;;;;5013283;28;20077;-67
2022/04/25 01:16:51;;;;;;;23.05;7.28;;;;;;;;;;5013456;28;20045;-68
2022/04/25 01:19:17;;;;;;;15.55;7.43;;;;;;;;;;5012714;28;20099;-67
2022/04/25 01:21:44;;;;;;;20.23;7.78;;;;;;;;;;5013602;28;20100;-67
2022/04/25 01:29:39;;;;;;;;;;;;;;;;;;5009026;28;20137;-68
2022/04/25 01:32:05;;;;;;;14.63;6.72;;;;;;;;;;5013512;28;20388;-68
2022/04/25 01:34:32;;;;;;;13.60;7.88;;;;;;;;;;5012685;28;20046;-67
2022/04/25 01:36:58;;;;;;;20.15;8.13;;;;;;;;;;5013975;28;20489;-67
2022/04/25 01:39:24;;;;;;;24.25;9.07;;;;;;;;;;5010422;28;20072;-67
2022/04/25 01:41:49;;;;;;;20.83;8.93;;;;;;;;;;5016138;28;20077;-67
2022/04/25 01:44:14;;;;;;;20.30;8.88;;;;;;;;;;5013033;28;20030;-68
2022/04/25 01:46:40;;;;;;;25.27;8.93;;;;;;;;;;5015465;28;20030;-67
2022/04/25 01:49:05;;;;;;;23.67;9.60;;;;;;;;;;5023101;28;20486;-67
2022/04/25 01:51:32;;;;;;;23.95;9.68;;;;;;;;;;5016472;28;20025;-67
2022/04/25 01:53:57;;;;;;;18.25;9.38;;;;;;;;;;5016348;28;20030;-67
2022/04/25 01:56:22;;;;;;;23.50;10.15;;;;;;;;;;5016317;28;20042;-67
2022/04/25 01:58:48;;;;;;;20.77;9.73;;;;;;;;;;5016576;28;20104;-67
2022/04/25 02:01:14;;;;;;;31.70;10.65;;;;;;;;;;5023597;28;20046;-67
2022/04/25 02:03:40;;;;;;;26.00;11.70;;;;;;;;;;5015839;28;20041;-67
2022/04/25 02:06:05;;;;;;;21.33;10.85;;;;;;;;;;5016298;28;20056;-67
2022/04/25 02:08:31;;;;;;;35.97;11.57;;;;;;;;;;5031444;28;20394;-67
2022/04/25 02:13:40;;;;;;;26.55;12.68;;;;;;;;;;5015837;28;20045;-68
2022/04/25 02:16:06;;;;;;;28.65;11.75;;;;;;;;;;5019091;28;20030;-67
2022/04/25 02:18:31;;;;;;;29.60;11.73;;;;;;;;;;5013937;28;20030;-67
2022/04/25 02:20:56;;;;;;;22.67;10.45;;;;;;;;;;5023134;28;20524;-67
2022/04/25 02:23:23;;;;;;;26.90;11.35;;;;;;;;;;5015655;28;20034;-67
2022/04/25 02:25:49;;;;;;;32.13;10.25;;;;;;;;;;5015586;28;20473;-67
2022/04/25 02:28:14;;;;;;;23.23;11.00;;;;;;;;;;5015831;28;20034;-67
2022/04/25 02:30:40;;;;;;;30.27;11.02;;;;;;;;;;5015845;28;20096;-67
2022/04/25 02:33:05;;;;;;;32.25;10.73;;;;;;;;;;5015582;28;20026;-67
2022/04/25 02:35:30;;;;;;;34.20;10.82;;;;;;;;;;5021925;28;20452;-67
2022/04/25 02:37:56;;;;;;;27.83;10.63;;;;;;;;;;5015649;28;20040;-67
2022/04/25 02:40:21;;;;;;;28.50;10.73;;;;;;;;;;5015549;28;20532;-67
2022/04/25 02:42:46;;;;;;;25.90;9.88;;;;;;;;;;5015569;28;20030;-67
2022/04/25 02:45:12;;;;;;;18.35;9.48;;;;;;;;;;5015527;28;20053;-67
2022/04/25 02:47:37;;;;;;;25.45;9.57;;;;;;;;;;5015087;28;20030;-67
2022/04/25 02:50:03;;;;;;;30.48;10.80;;;;;;;;;;5033029;28;20042;-67
2022/04/25 02:52:28;;;;;;;26.75;11.10;;;;;;;;;;5015199;28;20426;-67
2022/04/25 02:54:54;;;;;;;26.05;9.95;;;;;;;;;;5017889;28;20083;-67
2022/04/25 02:57:19;;;;;;;28.13;10.70;;;;;;;;;;5014365;28;20042;-67
2022/04/25 02:59:45;;;;;;;34.03;11.40;;;;;;;;;;5019457;28;20046;-67
2022/04/25 03:02:10;;;;;;;26.63;11.05;;;;;;;;;;5015097;28;20095;-67
2022/04/25 03:04:36;;;;;;;35.35;12.15;;;;;;;;;;5017045;28;20451;-67
2022/04/25 03:07:02;;;;;;;24.75;10.93;;;;;;;;;;5015190;28;20045;-67
2022/04/25 03:09:28;;;;;;;28.10;11.30;;;;;;;;;;5014651;28;20493;-67
2022/04/25 03:11:53;;;;;;;30.25;12.25;;;;;;;;;;5020887;28;20042;-67
2022/04/25 03:14:19;;;;;;;27.52;11.73;;;;;;;;;;5016509;28;20393;-67
2022/04/25 03:16:44;;;;;;;25.63;11.40;;;;;;;;;;5014510;28;20033;-67
2022/04/25 03:19:10;;;;;;;25.23;11.95;;;;;;;;;;5014771;28;20040;-67
2022/04/25 03:21:35;;;;;;;26.20;13.05;;;;;;;;;;5017253;28;20044;-67
2022/04/25 03:24:02;;;;;;;32.72;12.57;;;;;;;;;;5017733;28;20093;-67
2022/04/25 03:26:29;;;;;;;33.60;11.45;;;;;;;;;;5014694;28;20034;-67
2022/04/25 03:28:54;;;;;;;30.20;11.48;;;;;;;;;;5015760;28;20033;-67
2022/04/25 03:31:19;;;;;;;28.55;10.48;;;;;;;;;;5014679;28;20022;-67
2022/04/25 03:33:45;;;;;;;33.30;11.70;;;;;;;;;;5014519;28;20466;-67
2022/04/25 03:36:10;;;;;;;26.48;10.98;;;;;;;;;;5014422;28;20044;-67
2022/04/25 03:38:36;;;;;;;35.20;11.68;;;;;;;;;;5020177;28;20026;-67
2022/04/25 03:41:01;;;;;;;33.90;11.95;;;;;;;;;;5014132;28;20030;-67
2022/04/25 03:43:27;;;;;;;42.13;12.30;;;;;;;;;;5014645;28;20030;-67
2022/04/25 03:45:52;;;;;;;32.42;11.75;;;;;;;;;;5022758;28;20034;-67
2022/04/25 03:48:18;;;;;;;26.83;11.10;;;;;;;;;;5014403;28;20026;-67
2022/04/25 03:50:43;;;;;;;35.70;11.32;;;;;;;;;;5017086;28;20033;-67
2022/04/25 03:53:11;;;;;;;31.45;11.48;;;;;;;;;;5013886;28;20025;-67
2022/04/25 03:58:21;;;;;;;26.95;10.65;;;;;;;;;;5015482;28;20590;-67
2022/04/25 04:00:47;;;;;;;31.65;10.63;;;;;;;;;;5014083;28;20046;-67
2022/04/25 04:03:14;;;;;;;33.33;10.38;;;;;;;;;;5013873;28;20493;-67
2022/04/25 04:05:43;;;;;;;27.10;11.13;;;;;;;;;;5014122;28;20381;-67
2022/04/25 04:08:09;;;;;;;25.58;11.10;;;;;;;;;;5013028;28;20393;-67
2022/04/25 04:10:35;;;;;;;23.85;10.77;;;;;;;;;;5014096;28;20549;-67
2022/04/25 04:13:00;;;;;;;26.95;11.30;;;;;;;;;;5014349;28;20182;-68
2022/04/25 04:15:26;;;;;;;37.13;12.35;;;;;;;;;;5013450;28;20030;-67
2022/04/25 04:17:51;;;;;;;35.25;11.73;;;;;;;;;;5014031;28;20042;-68
2022/04/25 04:20:16;;;;;;;35.33;11.63;;;;;;;;;;5014274;28;20026;-67
2022/04/25 04:22:42;;;;;;;29.63;11.23;;;;;;;;;;5013910;28;20056;-67
2022/04/25 04:25:12;;;;;;;34.08;12.15;;;;;;;;;;5011424;28;20038;-67
2022/04/25 04:27:39;;;;;;;33.47;11.25;;;;;;;;;;5002190;28;20436;-67
2022/04/25 04:30:07;;;;;;;33.50;12.10;;;;;;;;;;5014872;28;20045;-67
2022/04/25 04:32:33;;;;;;;30.50;10.65;;;;;;;;;;5013742;28;20034;-67
2022/04/25 04:34:59;;;;;;;35.22;12.07;;;;;;;;;;5013369;28;20454;-67
2022/04/25 04:37:26;;;;;;;38.05;12.05;;;;;;;;;;5013550;28;20030;-67
2022/04/25 04:40:28;;;;;;;40.33;12.65;;;;;;;;;;5018382;28;20402;-67
2022/04/25 04:42:41;;;;;;;27.80;11.30;;;;;;;;;;5013053;28;20084;-67
2022/04/25 04:45:07;;;;;;;37.15;12.55;;;;;;;;;;5013748;28;20034;-68
2022/04/25 04:47:34;;;;;;;33.53;12.82;;;;;;;;;;5013464;28;20105;-67
2022/04/25 04:50:00;;;;;;;39.20;12.98;;;;;;;;;;5013370;28;20041;-67
2022/04/25 04:52:25;;;;;;;41.00;13.55;;;;;;;;;;5013345;28;20046;-67
2022/04/25 04:54:50;;;;;;;50.60;14.82;;;;;;;;;;5013431;28;20032;-67
2022/04/25 04:57:16;;;;;;;43.30;14.02;;;;;;;;;;5013328;28;20472;-67
2022/04/25 04:59:41;;;;;;;39.03;13.75;;;;;;;;;;5022547;28;20409;-67
2022/04/25 05:02:08;;;;;;;38.15;14.20;;;;;;;;;;5016088;28;20034;-67
2022/04/25 05:04:34;;;;;;;39.60;13.85;;;;;;;;;;5018000;28;20113;-67
2022/04/25 05:06:59;;;;;;;42.42;14.43;;;;;;;;;;5012866;28;20061;-67
2022/04/25 05:09:25;;;;;;;44.78;12.52;;;;;;;;;;5014999;28;20062;-67
2022/04/25 05:11:50;;;;;;;41.47;12.63;;;;;;;;;;5015349;28;20473;-67
2022/04/25 05:14:16;;;;;;;39.15;12.27;;;;;;;;;;5014411;28;20084;-68
2022/04/25 05:16:41;;;;;;;37.72;12.15;;;;;;;;;;5013106;28;20030;-68
2022/04/25 05:19:07;;;;;;;37.40;12.20;;;;;;;;;;5013259;28;20553;-67
2022/04/25 05:21:32;;;;;;;31.90;12.57;;;;;;;;;;5013595;28;20049;-67
2022/04/25 05:23:58;;;;;;;42.08;12.15;;;;;;;;;;5019281;28;20061;-68
2022/04/25 05:26:23;;;;;;;32.45;12.32;;;;;;;;;;5017156;28;20034;-68
2022/04/25 05:28:48;;;;;;;26.08;11.32;;;;;;;;;;5024228;28;20436;-67
2022/04/25 05:31:14;;;;;;;40.97;12.48;;;;;;;;;;5017129;28;20034;-67
2022/04/25 05:33:39;;;;;;;39.47;12.07;;;;;;;;;;5014292;28;20045;-67
2022/04/25 05:36:05;;;;;;;33.45;12.43;;;;;;;;;;5016679;28;20508;-68
2022/04/25 05:38:30;;;;;;;25.83;11.82;;;;;;;;;;5021977;28;20059;-67
2022/04/25 05:40:56;;;;;;;30.92;11.23;;;;;;;;;;5019417;28;20034;-68
2022/04/25 05:43:23;;;;;;;42.63;12.30;;;;;;;;;;5016808;28;20146;-67
2022/04/25 05:45:48;;;;;;;26.33;10.20;;;;;;;;;;5016597;28;20033;-68
2022/04/25 05:53:41;;;;;;;19.92;9.02;;;;;;;;;;5016727;28;20397;-67
2022/04/25 05:56:07;;;;;;;22.83;9.32;;;;;;;;;;5016004;28;20034;-67
2022/04/25 05:58:32;;;;;;;29.73;8.27;;;;;;;;;;5016583;28;20041;-67
2022/04/25 06:00:58;;;;;;;22.90;8.20;;;;;;;;;;5033478;28;20058;-67
2022/04/25 06:03:24;;;;;;;26.33;6.88;;;;;;;;;;5016216;28;20444;-67
2022/04/25 06:05:49;;;;;;;16.02;7.07;;;;;;;;;;5016130;28;20045;-68
2022/04/25 06:08:14;;;;;;;22.08;5.90;;;;;;;;;;5017735;28;20056;-67
2022/04/25 06:10:40;;;;;;;16.88;4.90;;;;;;;;;;5016505;28;20080;-68
2022/04/25 06:13:08;;;;;;;13.52;4.93;;;;;;;;;;5017090;28;20120;-68
2022/04/25 06:15:33;;;;;;;12.23;4.20;;;;;;;;;;5021780;28;20034;-67
2022/04/25 06:17:59;;;;;;;13.15;4.50;;;;;;;;;;5016238;28;20117;-67
2022/04/25 06:20:25;;;;;;;9.25;3.90;;;;;;;;;;5023802;28;20493;-67
2022/04/25 06:22:58;;;;;;;12.82;3.25;;;;;;;;;;5016068;28;20128;-67
2022/04/25 06:25:27;;;;;;;6.72;2.58;;;;;;;;;;5015927;28;20045;-67
2022/04/25 06:27:53;;;;;;;8.70;3.47;;;;;;;;;;5016050;28;20109;-67
2022/04/25 06:30:23;;;;;;;7.22;2.83;;;;;;;;;;5018241;28;20093;-67
2022/04/25 06:32:49;;;;;;;10.75;3.00;;;;;;;;;;5024802;28;20119;-68
2022/04/25 06:35:15;;;;;;;18.25;2.80;;;;;;;;;;5016612;28;20022;-68
2022/04/25 06:37:40;;;;;;;4.90;2.15;;;;;;;;;;5015686;28;20046;-68
2022/04/25 06:40:07;;;;;;;7.10;2.17;;;;;;;;;;5014654;28;20100;-68
2022/04/25 06:42:32;;;;;;;11.23;2.40;;;;;;;;;;5025036;28;20025;-68
2022/04/25 06:44:58;;;;;;;9.68;2.75;;;;;;;;;;5015423;28;20044;-68
2022/04/25 06:47:23;;;;;;;5.78;2.30;;;;;;;;;;5038503;28;20033;-68
2022/04/25 06:49:49;;;;;;;9.18;2.60;;;;;;;;;;5015486;28;20037;-68
2022/04/25 06:52:15;;;;;;;11.35;2.20;;;;;;;;;;5017462;28;20576;-68
2022/04/25 06:54:40;;;;;;;8.35;2.17;;;;;;;;;;5015011;28;20482;-68
2022/04/25 06:57:06;;;;;;;10.77;2.40;;;;;;;;;;5015039;28;20175;-68
2022/04/25 06:59:31;;;;;;;7.13;2.03;;;;;;;;;;5015154;28;20385;-68
2022/04/25 07:01:57;;;;;;;7.55;2.13;;;;;;;;;;5014905;28;20481;-68
2022/04/25 07:04:23;;;;;;;5.70;1.90;;;;;;;;;;5015151;28;20038;-68
2022/04/25 07:06:49;;;;;;;10.98;2.17;;;;;;;;;;5014650;28;20500;-68
2022/04/25 07:09:14;;;;;;;7.93;2.05;;;;;;;;;;5015024;28;20034;-68
2022/04/25 07:11:44;;;;;;;8.70;1.83;;;;;;;;;;5013501;28;20109;-68
2022/04/25 07:14:14;;;;;;;11.90;3.45;;;;;;;;;;5014902;28;20129;-68
2022/04/25 07:16:41;;;;;;;9.27;2.00;;;;;;;;;;5009100;28;20401;-68
2022/04/25 07:19:07;;;;;;;5.35;1.80;;;;;;;;;;5014489;28;20477;-68
2022/04/25 07:30:04;;;;;;;8.10;2.03;;;;;;;;;;5012909;28;20394;-68
2022/04/25 07:32:30;;;;;;;8.10;2.05;;;;;;;;;;5014467;28;20038;-68
2022/04/25 07:34:56;;;;;;;11.65;2.22;;;;;;;;;;5014320;28;20037;-69
2022/04/25 07:37:22;;;;;;;10.30;2.22;;;;;;;;;;5014544;28;20126;-69
2022/04/25 07:39:48;;;;;;;9.27;2.28;;;;;;;;;;5014774;28;20099;-68
2022/04/25 07:42:15;;;;;;;9.18;1.63;;;;;;;;;;5014353;28;20045;-68
2022/04/25 07:44:41;;;;;;;8.77;2.05;;;;;;;;;;5013892;28;20033;-69
2022/04/25 07:47:07;;;;;;;8.90;2.20;;;;;;;;;;5014219;28;20045;-69
2022/04/25 07:49:35;;;;;;;8.27;2.10;;;;;;;;;;5014153;28;20049;-69
2022/04/25 07:52:00;;;;;;;8.10;1.95;;;;;;;;;;5014007;28;20030;-69
2022/04/25 07:54:26;;;;;;;8.98;2.00;;;;;;;;;;5014232;28;20500;-68
2022/04/25 07:56:52;;;;;;;8.02;2.00;;;;;;;;;;5013351;28;20041;-68
2022/04/25 07:59:18;;;;;;;4.75;1.75;;;;;;;;;;5013965;28;20084;-68
2022/04/25 08:01:44;;;;;;;7.30;1.80;;;;;;;;;;5016330;28;20042;-68
2022/04/25 08:04:11;;;;;;;8.27;2.03;;;;;;;;;;5015977;28;20386;-68
2022/04/25 08:06:36;;;;;;;7.88;2.00;;;;;;;;;;5017231;28;20393;-68
2022/04/25 08:09:03;;;;;;;3.90;1.60;;;;;;;;;;5002266;28;20691;-68
2022/04/25 08:11:28;;;;;;;8.02;2.15;;;;;;;;;;5019899;28;20038;-68
2022/04/25 08:17:58;;;;;;;6.35;1.50;;;;;;;;;;5006177;28;20504;-69
2022/04/25 08:19:36;;;;;;;9.32;2.10;;;;;;;;;;5000043;28;20069;-69
2022/04/25 08:22:02;;;;;;;7.65;2.17;;;;;;;;;;5010222;28;20485;-69
2022/04/25 08:24:28;;;;;;;10.30;2.08;;;;;;;;;;5006751;28;20512;-69
2022/04/25 08:26:56;;;;;;;6.05;2.20;;;;;;;;;;5000414;28;20034;-69
2022/04/25 08:29:22;;;;;;;7.13;2.20;;;;;;;;;;5009695;28;20038;-69
2022/04/25 08:31:48;;;;;;;8.00;2.60;;;;;;;;;;5010395;28;20042;-69
2022/04/25 08:34:15;;;;;;;6.38;2.13;;;;;;;;;;5010613;28;20045;-67
2022/04/25 08:36:41;;;;;;;8.50;2.45;;;;;;;;;;5010058;28;20096;-67
2022/04/25 08:39:06;;;;;;;8.70;2.15;;;;;;;;;;5010487;28;20053;-67
2022/04/25 08:41:53;;;;;;;7.68;2.28;;;;;;;;;;5009880;28;20034;-67
2022/04/25 08:44:19;;;;;;;7.05;2.42;;;;;;;;;;5008050;28;20050;-67
2022/04/25 08:46:48;;;;;;;7.53;2.38;;;;;;;;;;5009464;28;20046;-67
2022/04/25 08:49:16;;;;;;;6.28;2.22;;;;;;;;;;5024698;28;20046;-67
2022/04/25 08:51:42;;;;;;;7.22;2.08;;;;;;;;;;5009924;28;20125;-67
2022/04/25 08:54:10;;;;;;;6.72;2.10;;;;;;;;;;5003155;28;20040;-68
2022/04/25 08:56:37;;;;;;;6.18;2.13;;;;;;;;;;5011880;28;20042;-67
2022/04/25 08:59:07;;;;;;;6.85;2.22;;;;;;;;;;5014051;28;20069;-68
2022/04/25 09:01:37;;;;;;;7.22;2.33;;;;;;;;;;5012790;28;20409;-68
2022/04/25 09:04:03;;;;;;;9.30;2.40;;;;;;;;;;5013808;28;20060;-67
2022/04/25 09:06:29;;;;;;;6.38;2.10;;;;;;;;;;4999681;28;20113;-67
2022/04/25 09:08:54;;;;;;;7.53;1.90;;;;;;;;;;5010920;28;20048;-68
2022/04/25 09:14:05;;;;;;;10.15;2.33;;;;;;;;;;5012774;28;20053;-69
2022/04/25 09:16:30;;;;;;;6.53;1.95;;;;;;;;;;5014445;28;20045;-70
2022/04/25 09:18:57;;;;;;;4.53;1.58;;;;;;;;;;5015880;28;20453;-69
2022/04/25 09:21:23;;;;;;;7.30;2.05;;;;;;;;;;5004128;28;20066;-69
2022/04/25 09:23:49;;;;;;;6.28;2.20;;;;;;;;;;5019808;28;20104;-69
2022/04/25 09:26:17;;;;;;;9.18;2.33;;;;;;;;;;5010214;28;20503;-69
2022/04/25 09:28:55;;;;;;;4.07;1.45;;;;;;;;;;5013371;28;20034;-69
2022/04/25 09:31:27;;;;;;;6.50;1.90;;;;;;;;;;5006693;28;20549;-69
2022/04/25 09:33:54;;;;;;;9.27;2.30;;;;;;;;;;5012317;28;20121;-69
2022/04/25 09:36:21;;;;;;;10.48;2.30;;;;;;;;;;5011602;28;20040;-69
2022/04/25 09:38:46;;;;;;;6.43;1.98;;;;;;;;;;5013694;28;20034;-69
2022/04/25 09:41:13;;;;;;;6.15;1.80;;;;;;;;;;5011970;28;20024;-69
2022/04/25 09:43:41;;;;;;;5.78;2.22;;;;;;;;;;5012510;28;20038;-69
2022/04/25 09:46:11;;;;;;;5.07;1.83;;;;;;;;;;5009829;28;20056;-69
2022/04/25 09:48:38;;;;;;;5.72;2.65;;;;;;;;;;5012836;28;20045;-67
2022/04/25 09:51:08;;;;;;;6.22;2.00;;;;;;;;;;5012470;28;20478;-67
2022/04/25 09:53:52;;;;;;;7.85;2.20;;;;;;;;;;5012303;28;20120;-68
2022/04/25 09:56:27;;;;;;;8.93;2.30;;;;;;;;;;5027601;28;20520;-67
2022/04/25 09:59:02;;;;;;;6.32;2.20;;;;;;;;;;5010300;28;20045;-67
2022/04/25 10:01:29;;;;;;;5.75;2.10;;;;;;;;;;5012550;28;20054;-67
2022/04/25 10:03:55;;;;;;;6.10;1.90;;;;;;;;;;5011956;28;20046;-67
2022/04/25 10:06:21;;;;;;;6.22;2.05;;;;;;;;;;5032686;28;20093;-67
2022/04/25 10:08:47;;;;;;;5.47;2.00;;;;;;;;;;5021160;28;20041;-67
2022/04/25 10:11:13;;;;;;;8.73;2.40;;;;;;;;;;5008210;28;20040;-67
2022/04/25 10:13:38;;;;;;;8.02;2.50;;;;;;;;;;5014130;28;20121;-68
2022/04/25 10:16:04;;;;;;;4.75;2.10;;;;;;;;;;5020318;28;20037;-67
2022/04/25 10:18:32;;;;;;;7.03;1.92;;;;;;;;;;5011637;28;20092;-67
2022/04/25 10:20:59;;;;;;;10.05;2.33;;;;;;;;;;5011871;28;20046;-68
2022/04/25 10:23:25;;;;;;;7.03;2.10;;;;;;;;;;5006602;28;20038;-67
2022/04/25 10:25:55;;;;;;;5.97;1.90;;;;;;;;;;5007351;28;20440;-67
2022/04/25 10:28:37;;;;;;;10.20;2.42;;;;;;;;;;5010172;28;20473;-66
2022/04/25 10:31:09;;;;;;;7.38;1.95;;;;;;;;;;5025134;28;20133;-69
2022/04/25 10:33:48;;;;;;;7.35;2.13;;;;;;;;;;5004653;28;20172;-69
2022/04/25 10:36:38;;;;;;;6.97;1.92;;;;;;;;;;5008003;28;20053;-69
2022/04/25 10:39:27;;;;;;;6.32;1.90;;;;;;;;;;5011473;28;20505;-68
2022/04/25 10:44:36;;;;;;;;;;;;;;;;;;5012505;28;20111;-68
2022/04/25 10:47:11;;;;;;;5.68;1.55;;;;;;;;;;5012374;28;20347;-68
2022/04/25 10:49:40;;;;;;;5.40;1.50;;;;;;;;;;5011589;28;20436;-68
2022/04/25 10:52:37;;;;;;;5.85;1.92;;;;;;;;;;5002544;28;20048;-68
2022/04/25 10:55:29;;;;;;;10.65;1.70;;;;;;;;;;5011699;28;20073;-69
2022/04/25 10:58:04;;;;;;;3.47;1.80;;;;;;;;;;5012135;28;20046;-68
2022/04/25 11:00:42;;;;;;;5.47;1.70;;;;;;;;;;5011584;28;20057;-68
2022/04/25 11:03:15;;;;;;;5.40;2.13;;;;;;;;;;5011196;28;20377;-68
2022/04/25 11:05:45;;;;;;;5.65;1.77;;;;;;;;;;5011488;28;20042;-68
2022/04/25 11:08:19;;;;;;;6.18;2.08;;;;;;;;;;5005064;28;20045;-68
2022/04/25 11:10:56;;;;;;;5.43;1.60;;;;;;;;;;5009996;28;20500;-68
2022/04/25 11:13:23;;;;;;;4.88;2.00;;;;;;;;;;5003262;28;20392;-68
2022/04/25 11:15:49;;;;;;;4.82;1.70;;;;;;;;;;5005981;28;20042;-68
2022/04/25 11:18:34;;;;;;;4.63;1.67;;;;;;;;;;5005257;28;20482;-68
2022/04/25 11:21:12;;;;;;;6.65;2.03;;;;;;;;;;4999845;28;20576;-68
2022/04/25 11:23:44;;;;;;;2.78;1.42;;;;;;;;;;5009916;28;20053;-68
2022/04/25 11:26:22;;;;;;;5.75;1.60;;;;;;;;;;5003013;28;20042;-67
2022/04/25 11:29:01;;;;;;;7.45;2.00;;;;;;;;;;5003102;28;20188;-68
2022/04/25 11:31:28;;;;;;;5.85;1.65;;;;;;;;;;5002687;28;20125;-68
2022/04/25 11:33:57;;;;;;;4.68;1.70;;;;;;;;;;5005814;28;20037;-68
2022/04/25 11:36:24;;;;;;;7.70;1.95;;;;;;;;;;5009561;28;20092;-68
2022/04/25 11:41:36;;;;;;;8.43;2.22;;;;;;;;;;5005392;28;20131;-68
2022/04/25 11:44:01;;;;;;;3.17;1.55;;;;;;;;;;5004579;28;20168;-68
2022/04/25 11:46:28;;;;;;;11.50;2.20;;;;;;;;;;5009702;28;20145;-68
2022/04/25 11:48:54;;;;;;;3.35;1.75;;;;;;;;;;5009364;28;20041;-68
2022/04/25 11:51:29;;;;;;;6.43;1.90;;;;;;;;;;5002624;28;20066;-68
2022/04/25 11:53:58;;;;;;;5.53;2.03;;;;;;;;;;5008612;28;20034;-68
2022/04/25 11:56:25;;;;;;;3.22;1.50;;;;;;;;;;5007145;28;20042;-68
2022/04/25 11:58:50;;;;;;;5.55;1.60;;;;;;;;;;4999631;28;20100;-68
2022/04/25 12:01:47;;;;;;;4.68;1.70;;;;;;;;;;5007083;28;20057;-68
2022/04/25 12:04:26;;;;;;;4.43;2.00;;;;;;;;;;4998675;28;20041;-68
2022/04/25 12:07:06;;;;;;;11.77;2.13;;;;;;;;;;4991452;28;20461;-68
2022/04/25 12:17:53;;;;;;;8.73;2.38;;;;;;;;;;4997378;28;20044;-68
2022/04/25 12:20:25;;;;;;;7.80;1.70;;;;;;;;;;5008045;28;20038;-68
2022/04/25 12:22:57;;;;;;;7.05;1.63;;;;;;;;;;5007510;28;20541;-68
2022/04/25 12:25:33;;;;;;;8.30;1.50;;;;;;;;;;5004786;28;20124;-68
2022/04/25 12:28:13;;;;;;;3.95;1.92;;;;;;;;;;5002024;28;20034;-68
2022/04/25 12:30:49;;;;;;;3.67;1.55;;;;;;;;;;4998528;28;20038;-68
2022/04/25 12:33:16;;;;;;;4.35;1.52;;;;;;;;;;5010146;28;20026;-68
2022/04/25 12:35:43;;;;;;;5.47;1.85;;;;;;;;;;5007333;28;20064;-68
2022/04/25 12:38:09;;;;;;;6.57;2.10;;;;;;;;;;5011621;28;20196;-68
2022/04/25 12:40:55;;;;;;;6.95;1.75;;;;;;;;;;5012586;28;20472;-68
2022/04/25 12:43:45;;;;;;;5.50;1.65;;;;;;;;;;5011852;28;20056;-68
2022/04/25 12:46:13;;;;;;;6.13;2.05;;;;;;;;;;5007788;28;20029;-68
2022/04/25 12:49:18;;;;;;;4.95;2.03;;;;;;;;;;5009167;28;20470;-68
2022/04/25 12:51:50;;;;;;;7.97;1.90;;;;;;;;;;5022995;28;20073;-68
2022/04/25 12:54:31;;;;;;;8.15;1.90;;;;;;;;;;5007222;28;20073;-68
2022/04/25 12:57:16;;;;;;;6.88;1.90;;;;;;;;;;5013154;28;20061;-68
2022/04/25 12:59:43;;;;;;;5.05;1.75;;;;;;;;;;5003250;28;20057;-68
2022/04/25 13:02:12;;;;;;;6.10;2.42;;;;;;;;;;5004173;28;20030;-68
2022/04/25 13:04:56;;;;;;;4.55;1.65;;;;;;;;;;4993284;28;20041;-68
2022/04/25 13:07:30;;;;;;;5.95;1.90;;;;;;;;;;5001565;28;20038;-68
2022/04/25 13:10:00;;;;;;;5.60;1.83;;;;;;;;;;5005335;28;20041;-68
2022/04/25 13:12:39;;;;;;;5.68;1.40;;;;;;;;;;5002119;28;20049;-68
2022/04/25 13:15:06;;;;;;;4.95;1.60;;;;;;;;;;4998919;28;20133;-68
2022/04/25 13:17:32;;;;;;;8.65;2.20;;;;;;;;;;5008654;28;20065;-68
2022/04/25 13:19:58;;;;;;;6.88;1.95;;;;;;;;;;5003940;28;20042;-68
2022/04/25 13:22:23;;;;;;;3.75;1.58;;;;;;;;;;5005648;28;20080;-68
2022/04/25 13:24:49;;;;;;;5.93;2.13;;;;;;;;;;5007937;28;20041;-68
2022/04/25 13:27:15;;;;;;;5.00;2.00;;;;;;;;;;5008615;28;20061;-68
2022/04/25 13:29:41;;;;;;;3.75;1.50;;;;;;;;;;5002589;28;20076;-68
2022/04/25 13:32:07;;;;;;;5.50;1.55;;;;;;;;;;5001169;28;20065;-68
2022/04/25 13:34:32;;;;;;;3.85;1.58;;;;;;;;;;5007196;28;20080;-67
2022/04/25 13:37:02;;;;;;;4.68;1.40;;;;;;;;;;5003951;28;20045;-68
2022/04/25 13:39:27;;;;;;;6.85;1.83;;;;;;;;;;5001924;28;20038;-68
2022/04/25 13:41:53;;;;;;;6.88;1.70;;;;;;;;;;5007568;28;20057;-68
2022/04/25 13:44:21;;;;;;;4.05;1.80;;;;;;;;;;5002518;28;20566;-68
2022/04/25 13:46:47;;;;;;;6.18;1.60;;;;;;;;;;5008319;28;20053;-68
2022/04/25 13:49:13;;;;;;;2.92;1.40;;;;;;;;;;5011727;28;20038;-68
2022/04/25 13:51:38;;;;;;;4.80;1.77;;;;;;;;;;5011610;28;20363;-68
2022/04/25 13:54:04;;;;;;;3.58;1.80;;;;;;;;;;5011614;28;20393;-68
2022/04/25 13:56:30;;;;;;;2.55;1.50;;;;;;;;;;5012238;28;20379;-68
2022/04/25 13:58:55;;;;;;;3.58;1.60;;;;;;;;;;5005454;28;20470;-68
2022/04/25 14:01:20;;;;;;;5.35;1.67;;;;;;;;;;5009092;28;20456;-68
2022/04/25 14:03:47;;;;;;;6.03;1.92;;;;;;;;;;5010731;28;20038;-68
2022/04/25 14:06:12;;;;;;;2.80;1.48;;;;;;;;;;5009747;28;20168;-68
2022/04/25 14:08:39;;;;;;;7.45;1.70;;;;;;;;;;5008632;28;20120;-68
2022/04/25 14:11:05;;;;;;;4.78;1.70;;;;;;;;;;5002842;28;20402;-69
2022/04/25 14:13:30;;;;;;;3.13;1.55;;;;;;;;;;5003525;28;20041;-68
2022/04/25 14:15:56;;;;;;;6.38;2.08;;;;;;;;;;5003070;28;20493;-68
2022/04/25 14:18:22;;;;;;;5.00;1.70;;;;;;;;;;5010005;28;20029;-68
2022/04/25 14:20:47;;;;;;;5.07;1.58;;;;;;;;;;5006581;28;20173;-68
2022/04/25 14:23:13;;;;;;;7.65;1.85;;;;;;;;;;5011274;28;20397;-68
2022/04/25 14:25:39;;;;;;;4.07;1.50;;;;;;;;;;5008031;28;20042;-68
2022/04/25 14:28:05;;;;;;;4.70;1.50;;;;;;;;;;5009715;28;20073;-69
2022/04/25 14:30:32;;;;;;;4.85;1.75;;;;;;;;;;4997446;28;20046;-69
2022/04/25 14:32:58;;;;;;;3.67;1.60;;;;;;;;;;5015311;28;20121;-68
2022/04/25 14:35:24;;;;;;;4.78;1.67;;;;;;;;;;5010683;28;20116;-68
2022/04/25 14:37:50;;;;;;;2.55;1.48;;;;;;;;;;5010258;28;20416;-68
2022/04/25 14:40:16;;;;;;;5.78;1.77;;;;;;;;;;5004114;28;20056;-68
2022/04/25 14:42:42;;;;;;;4.90;2.22;;;;;;;;;;5004797;28;20470;-68
2022/04/25 14:45:08;;;;;;;6.25;1.60;;;;;;;;;;5004869;28;20061;-68
2022/04/25 14:47:34;;;;;;;7.07;1.95;;;;;;;;;;4990931;28;20069;-68
2022/04/25 14:55:28;;;;;;;6.15;1.50;;;;;;;;;;5008386;28;19923;-68
2022/04/25 14:57:53;;;;;;;5.22;1.52;;;;;;;;;;5011180;28;20129;-68
2022/04/25 15:00:20;;;;;;;5.22;1.58;;;;;;;;;;5010084;28;20064;-68
2022/04/25 15:02:46;;;;;;;7.85;1.48;;;;;;;;;;5002744;28;20026;-68
2022/04/25 15:05:11;;;;;;;6.28;1.67;;;;;;;;;;5005449;28;20052;-68
2022/04/25 15:07:37;;;;;;;5.30;1.58;;;;;;;;;;5006054;28;20072;-68
2022/04/25 15:10:03;;;;;;;4.15;1.48;;;;;;;;;;5000058;28;20039;-68
2022/04/25 15:12:29;;;;;;;3.17;1.50;;;;;;;;;;5007658;28;20474;-68
2022/04/25 15:14:54;;;;;;;4.93;1.60;;;;;;;;;;5009586;28;20046;-68
2022/04/25 15:17:20;;;;;;;3.78;1.70;;;;;;;;;;5005378;28;20124;-68
2022/04/25 15:19:45;;;;;;;3.10;1.60;;;;;;;;;;5007991;28;20100;-68
2022/04/25 15:22:10;;;;;;;4.97;1.70;;;;;;;;;;5004231;28;20101;-68
2022/04/25 15:24:36;;;;;;;6.72;2.28;;;;;;;;;;5001496;28;20038;-68
2022/04/25 15:27:02;;;;;;;3.22;1.50;;;;;;;;;;4999951;28;20078;-68